Time;durP1;ratioP1;P1;durP2;ratioP2;P2;SDS_P1;SDS_P2;PMS_P1;PMS_P2;Temp;Humidity;BMP_temperature;BMP_pressure;BME280_temperature;BME280_humidity;BME280_pressure;Samples;Min_cycle;Max_cycle;Signal;HPM_P1;HPM_P2
2022/11/16 00:01:29;;;;;;;8.23;4.43;;;;;;;;;;5106240;27;20055;-62
2022/11/16 00:03:57;;;;;;;9.77;4.35;;;;;;;;;;5062091;28;20036;-63
2022/11/16 00:06:22;;;;;;;8.75;4.18;;;;;;;;;;5087918;28;20035;-63
2022/11/16 00:11:36;;;;;;;9.50;4.55;;;;;;;;;;5085897;28;20030;-63
2022/11/16 00:14:02;;;;;;;9.52;5.28;;;;;;;;;;5085940;28;20528;-63
2022/11/16 00:16:28;;;;;;;11.85;5.13;;;;;;;;;;5085421;28;20051;-63
2022/11/16 00:18:59;;;;;;;11.32;4.90;;;;;;;;;;5086147;28;20048;-63
2022/11/16 00:21:25;;;;;;;9.23;5.03;;;;;;;;;;5085425;28;20016;-63
2022/11/16 00:23:50;;;;;;;8.93;4.43;;;;;;;;;;5085790;28;20373;-63
2022/11/16 00:26:16;;;;;;;6.80;3.92;;;;;;;;;;5086086;28;20050;-63
2022/11/16 00:28:41;;;;;;;8.63;3.90;;;;;;;;;;5085943;28;20028;-63
2022/11/16 00:31:08;;;;;;;10.07;4.30;;;;;;;;;;5097247;28;20467;-63
2022/11/16 00:33:34;;;;;;;10.45;4.30;;;;;;;;;;5093718;27;20016;-63
2022/11/16 00:36:04;;;;;;;7.45;3.70;;;;;;;;;;5105603;28;20012;-63
2022/11/16 00:38:30;;;;;;;8.88;4.28;;;;;;;;;;5106527;28;20042;-63
2022/11/16 00:40:55;;;;;;;7.38;3.60;;;;;;;;;;5106580;27;20035;-63
2022/11/16 00:43:21;;;;;;;6.97;3.78;;;;;;;;;;5109191;27;20086;-63
2022/11/16 00:45:46;;;;;;;8.73;4.07;;;;;;;;;;5108513;27;20059;-63
2022/11/16 00:48:12;;;;;;;9.40;3.95;;;;;;;;;;5096604;28;20024;-62
2022/11/16 00:50:38;;;;;;;9.32;4.55;;;;;;;;;;5088916;28;20036;-63
2022/11/16 00:53:04;;;;;;;8.70;4.18;;;;;;;;;;5088045;28;20028;-63
2022/11/16 00:55:30;;;;;;;12.35;4.40;;;;;;;;;;5086400;28;20043;-63
2022/11/16 00:57:55;;;;;;;8.70;4.85;;;;;;;;;;5086440;28;20028;-63
2022/11/16 01:00:21;;;;;;;9.63;4.60;;;;;;;;;;5089903;28;20019;-63
2022/11/16 01:02:46;;;;;;;10.13;4.85;;;;;;;;;;5087082;28;20730;-62
2022/11/16 01:05:12;;;;;;;8.90;3.97;;;;;;;;;;5087171;28;20031;-63
2022/11/16 01:07:38;;;;;;;9.55;4.50;;;;;;;;;;5088494;28;20089;-63
2022/11/16 01:10:06;;;;;;;10.60;5.10;;;;;;;;;;5105315;27;20028;-62
2022/11/16 01:12:32;;;;;;;8.90;4.03;;;;;;;;;;5109614;28;20020;-63
2022/11/16 01:14:57;;;;;;;10.10;4.20;;;;;;;;;;5109734;28;20027;-62
2022/11/16 01:17:22;;;;;;;11.82;4.05;;;;;;;;;;5109109;28;20563;-63
2022/11/16 01:19:48;;;;;;;13.35;3.70;;;;;;;;;;5109228;27;20027;-62
2022/11/16 01:22:13;;;;;;;8.65;4.22;;;;;;;;;;5108566;28;20558;-63
2022/11/16 01:24:38;;;;;;;8.35;3.85;;;;;;;;;;5109175;28;20059;-63
2022/11/16 01:27:04;;;;;;;9.38;4.25;;;;;;;;;;5109244;28;20046;-62
2022/11/16 01:29:30;;;;;;;8.57;4.05;;;;;;;;;;5108886;27;20115;-63
2022/11/16 01:31:56;;;;;;;11.13;4.50;;;;;;;;;;5109393;28;20035;-63
2022/11/16 01:34:21;;;;;;;9.55;4.15;;;;;;;;;;5101389;28;20058;-62
2022/11/16 01:36:47;;;;;;;7.63;4.07;;;;;;;;;;5108976;28;20028;-63
2022/11/16 01:39:13;;;;;;;9.80;4.50;;;;;;;;;;5109676;28;20028;-63
2022/11/16 01:41:41;;;;;;;8.55;4.45;;;;;;;;;;5108144;28;20028;-62
2022/11/16 01:44:31;;;;;;;7.72;4.03;;;;;;;;;;5092975;27;20035;-63
2022/11/16 01:47:04;;;;;;;8.38;4.30;;;;;;;;;;5088248;28;20032;-63
2022/11/16 01:49:31;;;;;;;;;;;;;;;;;;5088692;28;20028;-62
2022/11/16 01:52:07;;;;;;;6.78;3.70;;;;;;;;;;5087725;28;19912;-62
2022/11/16 01:54:37;;;;;;;8.02;3.55;;;;;;;;;;5105356;27;20544;-62
2022/11/16 01:57:07;;;;;;;5.70;3.22;;;;;;;;;;5108937;28;20023;-63
2022/11/16 01:59:33;;;;;;;6.90;3.00;;;;;;;;;;5108229;28;20593;-63
2022/11/16 02:01:59;;;;;;;7.10;2.92;;;;;;;;;;5107868;28;20064;-62
2022/11/16 02:04:24;;;;;;;5.80;3.00;;;;;;;;;;5107770;28;20031;-62
2022/11/16 02:07:05;;;;;;;4.13;2.30;;;;;;;;;;5108238;28;20023;-62
2022/11/16 02:10:00;;;;;;;6.55;2.35;;;;;;;;;;5102629;27;20020;-63
2022/11/16 02:12:42;;;;;;;5.00;2.30;;;;;;;;;;5086959;28;20488;-63
2022/11/16 02:15:24;;;;;;;7.53;2.50;;;;;;;;;;5088597;28;20053;-63
2022/11/16 02:18:17;;;;;;;6.03;2.25;;;;;;;;;;5086298;28;20089;-63
2022/11/16 02:21:04;;;;;;;6.55;2.65;;;;;;;;;;5087821;28;20098;-63
2022/11/16 02:24:00;;;;;;;6.70;2.08;;;;;;;;;;5087001;28;20043;-63
2022/11/16 02:26:34;;;;;;;7.63;2.05;;;;;;;;;;5072578;28;20048;-62
2022/11/16 02:29:24;;;;;;;3.75;1.80;;;;;;;;;;5067166;28;20142;-62
2022/11/16 02:32:19;;;;;;;4.18;1.80;;;;;;;;;;5066666;28;20040;-63
2022/11/16 02:34:59;;;;;;;3.90;1.73;;;;;;;;;;5073681;28;20058;-62
2022/11/16 02:37:29;;;;;;;4.60;1.75;;;;;;;;;;5087485;28;20524;-63
2022/11/16 02:40:01;;;;;;;4.85;1.90;;;;;;;;;;5095120;28;20195;-62
2022/11/16 02:42:35;;;;;;;4.80;1.90;;;;;;;;;;5107310;28;20088;-62
2022/11/16 02:45:04;;;;;;;8.18;2.00;;;;;;;;;;5108142;28;20034;-62
2022/11/16 02:47:33;;;;;;;4.50;1.80;;;;;;;;;;5106749;28;20078;-62
2022/11/16 02:50:05;;;;;;;6.82;2.13;;;;;;;;;;5107135;28;20039;-62
2022/11/16 02:52:30;;;;;;;5.30;2.10;;;;;;;;;;5107122;28;20058;-64
2022/11/16 02:54:56;;;;;;;3.08;1.80;;;;;;;;;;5107448;28;20516;-63
2022/11/16 02:57:38;;;;;;;6.68;2.47;;;;;;;;;;5074135;28;20492;-64
2022/11/16 03:00:05;;;;;;;6.60;2.90;;;;;;;;;;5082010;28;20035;-63
2022/11/16 03:02:31;;;;;;;9.57;2.55;;;;;;;;;;5086941;28;20032;-63
2022/11/16 03:05:03;;;;;;;5.75;2.83;;;;;;;;;;5083786;28;20043;-62
2022/11/16 03:07:35;;;;;;;5.43;2.47;;;;;;;;;;5048037;28;20037;-62
2022/11/16 03:10:01;;;;;;;5.22;2.78;;;;;;;;;;5066790;28;20062;-62
2022/11/16 03:12:30;;;;;;;8.85;2.90;;;;;;;;;;5066471;28;20035;-62
2022/11/16 03:15:03;;;;;;;8.20;3.15;;;;;;;;;;5064048;28;20028;-63
2022/11/16 03:17:43;;;;;;;12.82;3.28;;;;;;;;;;5068902;28;20505;-62
2022/11/16 03:20:10;;;;;;;6.13;2.85;;;;;;;;;;5068144;28;20036;-62
2022/11/16 03:22:44;;;;;;;11.63;3.03;;;;;;;;;;5085790;28;20043;-62
2022/11/16 03:25:12;;;;;;;5.88;2.90;;;;;;;;;;5089214;28;20512;-63
2022/11/16 03:27:54;;;;;;;6.43;2.60;;;;;;;;;;5092226;28;20562;-63
2022/11/16 03:30:21;;;;;;;2.95;2.20;;;;;;;;;;5086656;28;20069;-62
2022/11/16 03:32:58;;;;;;;5.05;2.10;;;;;;;;;;5088445;28;20492;-62
2022/11/16 03:35:29;;;;;;;6.25;1.90;;;;;;;;;;5106466;27;20126;-63
2022/11/16 03:37:57;;;;;;;6.43;2.42;;;;;;;;;;5106586;27;20036;-63
2022/11/16 03:40:25;;;;;;;4.47;2.15;;;;;;;;;;5094927;28;20036;-62
2022/11/16 03:42:52;;;;;;;5.60;2.22;;;;;;;;;;5086832;28;20040;-62
2022/11/16 03:45:18;;;;;;;5.50;2.10;;;;;;;;;;5086395;28;20060;-62
2022/11/16 03:47:44;;;;;;;7.70;1.73;;;;;;;;;;5086066;28;20516;-62
2022/11/16 03:50:09;;;;;;;13.23;1.92;;;;;;;;;;5105904;28;20031;-62
2022/11/16 03:52:35;;;;;;;9.77;2.10;;;;;;;;;;5106208;28;20123;-62
2022/11/16 03:55:00;;;;;;;6.38;1.80;;;;;;;;;;5106343;28;20034;-62
2022/11/16 03:57:26;;;;;;;9.65;2.22;;;;;;;;;;5106789;28;20038;-63
2022/11/16 03:59:51;;;;;;;5.57;1.70;;;;;;;;;;5105384;28;20020;-62
2022/11/16 04:02:17;;;;;;;5.07;2.20;;;;;;;;;;5101452;28;20100;-62
2022/11/16 04:24:22;;;;;;;5.47;1.15;;;;;;;;;;5090105;28;20475;-62
2022/11/16 04:29:41;;;;;;;2.92;1.50;;;;;;;;;;5090028;28;20043;-63
2022/11/16 04:37:47;;;;;;;2.85;1.20;;;;;;;;;;5110708;27;20091;-63
2022/11/16 04:40:14;;;;;;;2.85;1.48;;;;;;;;;;5103169;27;20160;-62
2022/11/16 04:42:39;;;;;;;5.80;1.20;;;;;;;;;;5100081;27;20047;-62
2022/11/16 04:47:50;;;;;;;7.82;1.48;;;;;;;;;;5109582;28;20078;-62
2022/11/16 04:50:16;;;;;;;5.05;2.40;;;;;;;;;;5109368;28;20435;-62
2022/11/16 04:52:42;;;;;;;10.77;1.23;;;;;;;;;;5109749;28;20054;-62
2022/11/16 04:55:08;;;;;;;11.07;1.00;;;;;;;;;;5109955;28;20704;-62
2022/11/16 04:57:33;;;;;;;5.13;1.10;;;;;;;;;;5102459;28;20082;-62
2022/11/16 04:59:58;;;;;;;5.18;1.10;;;;;;;;;;5101142;28;20106;-62
2022/11/16 05:02:24;;;;;;;4.43;1.25;;;;;;;;;;5108870;28;20508;-62
2022/11/16 05:04:49;;;;;;;7.95;1.67;;;;;;;;;;5109301;28;20069;-62
2022/11/16 05:07:14;;;;;;;2.97;0.68;;;;;;;;;;5099906;28;20040;-62
2022/11/16 05:09:45;;;;;;;4.70;1.23;;;;;;;;;;5101505;27;20555;-62
2022/11/16 05:12:16;;;;;;;7.45;1.50;;;;;;;;;;5130071;27;20023;-62
2022/11/16 05:14:42;;;;;;;4.75;1.30;;;;;;;;;;5123904;27;20028;-63
2022/11/16 05:17:08;;;;;;;3.88;1.20;;;;;;;;;;5108727;28;20532;-65
2022/11/16 05:22:18;;;;;;;3.28;1.65;;;;;;;;;;5108613;28;20054;-62
2022/11/16 05:24:43;;;;;;;2.67;1.48;;;;;;;;;;5102933;28;20045;-62
2022/11/16 05:27:12;;;;;;;5.90;1.40;;;;;;;;;;5108027;28;20104;-62
2022/11/16 05:29:38;;;;;;;8.57;1.60;;;;;;;;;;5108747;28;20059;-62
2022/11/16 05:32:05;;;;;;;3.90;1.27;;;;;;;;;;5105622;28;20078;-62
2022/11/16 05:34:30;;;;;;;4.88;1.25;;;;;;;;;;5105259;28;20051;-62
2022/11/16 05:36:56;;;;;;;2.38;1.30;;;;;;;;;;5108720;28;20058;-62
2022/11/16 05:39:22;;;;;;;2.97;1.17;;;;;;;;;;5109006;28;20035;-62
2022/11/16 05:41:48;;;;;;;4.50;1.30;;;;;;;;;;5107920;28;20781;-62
2022/11/16 05:44:14;;;;;;;5.35;1.30;;;;;;;;;;5108756;28;20060;-62
2022/11/16 05:46:40;;;;;;;9.48;1.35;;;;;;;;;;5108690;28;20027;-62
2022/11/16 05:49:06;;;;;;;5.53;1.58;;;;;;;;;;5108629;28;20081;-62
2022/11/16 05:51:33;;;;;;;1.67;1.15;;;;;;;;;;5108871;28;20051;-62
2022/11/16 05:53:58;;;;;;;7.68;1.73;;;;;;;;;;5108883;28;20023;-62
2022/11/16 05:56:24;;;;;;;2.55;1.67;;;;;;;;;;5088401;28;20032;-62
2022/11/16 05:58:49;;;;;;;4.10;1.58;;;;;;;;;;5087929;28;20047;-62
2022/11/16 06:01:14;;;;;;;3.00;1.42;;;;;;;;;;5087493;28;20464;-62
2022/11/16 06:03:40;;;;;;;10.13;2.08;;;;;;;;;;5087584;28;20028;-62
2022/11/16 06:06:05;;;;;;;12.27;2.00;;;;;;;;;;5087927;28;20027;-62
2022/11/16 06:08:31;;;;;;;5.07;1.50;;;;;;;;;;5096126;28;20028;-63
2022/11/16 06:11:00;;;;;;;2.58;1.15;;;;;;;;;;5108168;27;20035;-62
2022/11/16 06:13:25;;;;;;;14.65;2.42;;;;;;;;;;5107234;28;20038;-62
2022/11/16 06:15:51;;;;;;;10.52;1.95;;;;;;;;;;5104209;28;20032;-62
2022/11/16 06:18:16;;;;;;;5.65;1.33;;;;;;;;;;5096997;28;20059;-62
2022/11/16 06:20:41;;;;;;;6.80;1.40;;;;;;;;;;5095268;28;20089;-63
2022/11/16 06:23:07;;;;;;;5.43;1.50;;;;;;;;;;5087910;28;20040;-62
2022/11/16 06:25:32;;;;;;;3.78;1.70;;;;;;;;;;5081270;28;20117;-62
2022/11/16 06:27:58;;;;;;;4.88;1.33;;;;;;;;;;5048893;28;20056;-62
2022/11/16 06:30:24;;;;;;;3.92;1.67;;;;;;;;;;5067272;28;20665;-62
2022/11/16 06:32:49;;;;;;;4.22;1.70;;;;;;;;;;5070354;28;20055;-62
2022/11/16 06:35:15;;;;;;;7.78;1.55;;;;;;;;;;5085429;28;20582;-63
2022/11/16 06:37:40;;;;;;;2.38;1.23;;;;;;;;;;5087264;28;20074;-63
2022/11/16 06:40:07;;;;;;;4.68;1.17;;;;;;;;;;5087124;28;20508;-63
2022/11/16 06:42:32;;;;;;;10.13;1.50;;;;;;;;;;5087408;28;20057;-62
2022/11/16 06:44:57;;;;;;;6.00;1.65;;;;;;;;;;5087618;28;20476;-62
2022/11/16 06:47:22;;;;;;;2.80;1.33;;;;;;;;;;5073780;28;20473;-62
2022/11/16 06:49:48;;;;;;;2.78;1.10;;;;;;;;;;5074968;28;20048;-62
2022/11/16 06:52:13;;;;;;;1.63;0.65;;;;;;;;;;5086267;28;20037;-62
2022/11/16 06:54:38;;;;;;;5.35;1.73;;;;;;;;;;5086776;28;20036;-62
2022/11/16 06:57:04;;;;;;;6.88;1.10;;;;;;;;;;5087316;28;20028;-62
2022/11/16 06:59:29;;;;;;;5.25;1.48;;;;;;;;;;5086386;28;20177;-62
2022/11/16 07:01:54;;;;;;;6.63;2.15;;;;;;;;;;5061087;28;20043;-62
2022/11/16 07:04:20;;;;;;;2.40;1.02;;;;;;;;;;5075443;28;20047;-62
2022/11/16 07:06:46;;;;;;;6.20;1.77;;;;;;;;;;5068292;28;20052;-62
2022/11/16 07:09:13;;;;;;;6.32;1.83;;;;;;;;;;5084964;28;20724;-62
2022/11/16 07:11:38;;;;;;;2.38;1.45;;;;;;;;;;5086260;28;20034;-63
2022/11/16 07:14:03;;;;;;;4.82;1.77;;;;;;;;;;5086952;28;20035;-62
2022/11/16 07:16:29;;;;;;;1.95;1.00;;;;;;;;;;5084555;28;20028;-62
2022/11/16 07:18:56;;;;;;;3.88;1.17;;;;;;;;;;5085638;28;20040;-62
2022/11/16 07:21:22;;;;;;;3.33;1.35;;;;;;;;;;5085218;28;20065;-62
2022/11/16 07:23:47;;;;;;;8.15;2.17;;;;;;;;;;5086103;28;20055;-62
2022/11/16 07:26:13;;;;;;;2.35;1.30;;;;;;;;;;5077438;28;20667;-62
2022/11/16 07:28:38;;;;;;;3.05;1.42;;;;;;;;;;5096791;28;20031;-62
2022/11/16 07:31:06;;;;;;;4.03;1.73;;;;;;;;;;5105970;28;20039;-62
2022/11/16 07:33:32;;;;;;;7.15;1.45;;;;;;;;;;5102400;28;20134;-63
2022/11/16 07:36:02;;;;;;;5.57;1.52;;;;;;;;;;5087018;28;20016;-62
2022/11/16 07:38:29;;;;;;;7.25;1.83;;;;;;;;;;5085638;28;20067;-62
2022/11/16 07:40:59;;;;;;;2.30;1.50;;;;;;;;;;5084771;28;20565;-62
2022/11/16 07:43:25;;;;;;;4.75;1.20;;;;;;;;;;5085956;28;20040;-62
2022/11/16 07:45:52;;;;;;;3.65;1.23;;;;;;;;;;5085555;28;20382;-63
2022/11/16 07:48:17;;;;;;;3.05;1.30;;;;;;;;;;5102366;28;20024;-62
2022/11/16 07:50:42;;;;;;;3.85;1.40;;;;;;;;;;5106385;28;20160;-63
2022/11/16 07:53:07;;;;;;;2.60;1.23;;;;;;;;;;5107566;27;20847;-62
2022/11/16 07:55:33;;;;;;;7.10;1.45;;;;;;;;;;5085712;28;20473;-62
2022/11/16 07:57:58;;;;;;;5.35;1.17;;;;;;;;;;5070092;28;20094;-62
2022/11/16 08:00:23;;;;;;;2.83;1.15;;;;;;;;;;5070086;28;20067;-62
2022/11/16 08:02:49;;;;;;;2.17;0.95;;;;;;;;;;5051651;28;20024;-62
2022/11/16 08:05:15;;;;;;;1.50;0.75;;;;;;;;;;5069298;28;20041;-71
2022/11/16 08:07:40;;;;;;;2.45;1.42;;;;;;;;;;5063123;28;20520;-71
2022/11/16 08:10:06;;;;;;;10.98;1.75;;;;;;;;;;5069507;28;20062;-71
2022/11/16 08:12:31;;;;;;;4.15;1.38;;;;;;;;;;5075535;28;20024;-72
2022/11/16 08:14:56;;;;;;;4.03;1.00;;;;;;;;;;5068663;28;20020;-71
2022/11/16 08:17:22;;;;;;;4.20;1.70;;;;;;;;;;5083960;28;20044;-71
2022/11/16 08:19:47;;;;;;;7.78;1.65;;;;;;;;;;5071229;28;20909;-71
2022/11/16 08:22:12;;;;;;;4.25;1.73;;;;;;;;;;5070402;28;20032;-71
2022/11/16 08:24:38;;;;;;;3.20;1.77;;;;;;;;;;5086969;28;20030;-71
2022/11/16 08:27:03;;;;;;;6.13;1.80;;;;;;;;;;5083462;28;20785;-71
2022/11/16 08:29:28;;;;;;;4.57;2.22;;;;;;;;;;5087154;28;20042;-71
2022/11/16 08:31:54;;;;;;;9.30;1.77;;;;;;;;;;5061488;28;21114;-72
2022/11/16 08:34:20;;;;;;;5.28;1.95;;;;;;;;;;5067526;28;20036;-71
2022/11/16 08:36:45;;;;;;;5.03;1.88;;;;;;;;;;5057568;28;20040;-73
2022/11/16 08:39:11;;;;;;;3.25;1.35;;;;;;;;;;5089988;28;20030;-73
2022/11/16 08:41:36;;;;;;;4.13;1.45;;;;;;;;;;5071219;28;20105;-73
2022/11/16 08:44:02;;;;;;;1.35;0.77;;;;;;;;;;5088620;28;20443;-72
2022/11/16 08:46:28;;;;;;;6.97;2.53;;;;;;;;;;5089441;28;20440;-73
2022/11/16 08:48:55;;;;;;;6.78;1.65;;;;;;;;;;5070959;28;20544;-73
2022/11/16 08:51:21;;;;;;;3.92;1.33;;;;;;;;;;5088773;28;20498;-73
2022/11/16 08:53:48;;;;;;;5.40;1.25;;;;;;;;;;5089686;28;20099;-73
2022/11/16 08:56:13;;;;;;;2.08;1.27;;;;;;;;;;5083699;28;20443;-73
2022/11/16 08:58:45;;;;;;;2.88;1.00;;;;;;;;;;5080484;28;20784;-72
2022/11/16 09:01:19;;;;;;;7.80;2.28;;;;;;;;;;5083484;28;20532;-73
2022/11/16 09:03:45;;;;;;;4.85;1.42;;;;;;;;;;5086019;28;20028;-73
2022/11/16 09:06:11;;;;;;;4.32;1.27;;;;;;;;;;5070287;28;20027;-73
2022/11/16 09:08:39;;;;;;;6.22;1.58;;;;;;;;;;5086286;28;20058;-72
2022/11/16 09:11:06;;;;;;;4.57;1.40;;;;;;;;;;5087541;28;20028;-73
2022/11/16 09:13:32;;;;;;;4.47;1.55;;;;;;;;;;5087692;28;20042;-73
2022/11/16 09:15:59;;;;;;;3.92;1.30;;;;;;;;;;5084776;28;20027;-73
2022/11/16 09:18:25;;;;;;;1.58;1.20;;;;;;;;;;5088071;28;20032;-73
2022/11/16 09:20:50;;;;;;;6.53;1.45;;;;;;;;;;5069923;28;20421;-73
2022/11/16 09:23:16;;;;;;;4.25;1.20;;;;;;;;;;5088774;28;20124;-73
2022/11/16 09:25:44;;;;;;;2.03;0.90;;;;;;;;;;5068074;28;20045;-73
2022/11/16 09:28:10;;;;;;;8.77;1.50;;;;;;;;;;5068011;28;20032;-73
2022/11/16 09:30:35;;;;;;;3.33;1.25;;;;;;;;;;5069303;28;20093;-73
2022/11/16 09:33:00;;;;;;;3.45;2.00;;;;;;;;;;5084071;28;20017;-72
2022/11/16 09:35:26;;;;;;;4.50;1.20;;;;;;;;;;5079491;28;20044;-72
2022/11/16 09:37:51;;;;;;;1.73;1.35;;;;;;;;;;5078197;28;20481;-75
2022/11/16 09:40:17;;;;;;;3.17;0.82;;;;;;;;;;5075825;28;20525;-71
2022/11/16 09:43:11;;;;;;;4.15;1.20;;;;;;;;;;5079331;28;20047;-64
2022/11/16 09:46:14;;;;;;;5.68;1.27;;;;;;;;;;5082815;28;20111;-65
2022/11/16 09:48:40;;;;;;;4.35;0.88;;;;;;;;;;5066098;28;20024;-72
2022/11/16 09:51:10;;;;;;;1.98;1.02;;;;;;;;;;5080463;28;20061;-72
2022/11/16 09:53:41;;;;;;;3.35;0.90;;;;;;;;;;5085484;28;20040;-72
2022/11/16 09:56:11;;;;;;;3.70;1.30;;;;;;;;;;5085421;28;20401;-72
2022/11/16 09:58:52;;;;;;;0.57;0.52;;;;;;;;;;5085757;28;20512;-73
2022/11/16 10:01:36;;;;;;;2.90;1.10;;;;;;;;;;5086326;28;20405;-72
2022/11/16 10:04:18;;;;;;;6.20;1.40;;;;;;;;;;5087545;28;20035;-72
2022/11/16 10:06:50;;;;;;;4.22;1.05;;;;;;;;;;5096785;28;20450;-73
2022/11/16 10:09:16;;;;;;;1.25;0.82;;;;;;;;;;5086389;28;20039;-72
2022/11/16 10:11:55;;;;;;;7.47;1.20;;;;;;;;;;5106654;28;20035;-73
2022/11/16 10:14:30;;;;;;;4.47;1.00;;;;;;;;;;5090782;28;20040;-72
2022/11/16 10:17:03;;;;;;;4.05;1.15;;;;;;;;;;5085233;28;20039;-72
2022/11/16 10:19:48;;;;;;;3.00;1.40;;;;;;;;;;5085487;28;20035;-73
2022/11/16 10:22:32;;;;;;;2.60;1.33;;;;;;;;;;5087200;28;20036;-72
2022/11/16 10:24:59;;;;;;;4.00;1.00;;;;;;;;;;5084900;28;20031;-73
2022/11/16 10:27:27;;;;;;;4.55;1.63;;;;;;;;;;5087580;28;20563;-72
2022/11/16 10:30:07;;;;;;;2.80;1.13;;;;;;;;;;5088243;28;20028;-73
2022/11/16 10:32:58;;;;;;;3.88;1.13;;;;;;;;;;5087581;28;20028;-73
2022/11/16 10:35:36;;;;;;;4.15;1.20;;;;;;;;;;5087063;28;20032;-73
2022/11/16 10:38:10;;;;;;;3.63;1.08;;;;;;;;;;5087654;28;20089;-73
2022/11/16 10:40:37;;;;;;;8.43;1.60;;;;;;;;;;5086914;28;20871;-73
2022/11/16 10:43:24;;;;;;;4.05;1.50;;;;;;;;;;5087299;28;20643;-73
2022/11/16 10:45:59;;;;;;;3.33;1.60;;;;;;;;;;5085871;28;20050;-73
2022/11/16 10:48:41;;;;;;;5.82;1.50;;;;;;;;;;5086723;28;20048;-73
2022/11/16 10:51:08;;;;;;;7.40;1.20;;;;;;;;;;5087728;28;20043;-73
2022/11/16 10:53:36;;;;;;;7.20;1.60;;;;;;;;;;5085820;28;20036;-73
2022/11/16 10:56:30;;;;;;;4.43;1.30;;;;;;;;;;5081566;28;20124;-72
2022/11/16 10:59:06;;;;;;;7.50;1.77;;;;;;;;;;5084757;28;20065;-73
2022/11/16 11:01:49;;;;;;;5.93;2.17;;;;;;;;;;5085702;28;20540;-73
2022/11/16 11:04:17;;;;;;;3.95;1.40;;;;;;;;;;5087060;28;20063;-73
2022/11/16 11:06:44;;;;;;;3.80;1.48;;;;;;;;;;5086853;28;20074;-73
2022/11/16 11:09:21;;;;;;;2.50;1.02;;;;;;;;;;5085488;28;20024;-73
2022/11/16 11:15:01;;;;;;;6.75;1.60;;;;;;;;;;5086954;28;20062;-73
2022/11/16 11:17:28;;;;;;;1.00;0.70;;;;;;;;;;5085266;28;20611;-73
2022/11/16 11:19:59;;;;;;;4.18;1.15;;;;;;;;;;5084609;28;20409;-72
2022/11/16 11:22:25;;;;;;;7.00;1.67;;;;;;;;;;5086508;28;20047;-73
2022/11/16 11:24:51;;;;;;;3.50;1.60;;;;;;;;;;5085088;28;20035;-73
2022/11/16 11:27:26;;;;;;;3.67;1.42;;;;;;;;;;5085436;28;20457;-73
2022/11/16 11:29:54;;;;;;;2.10;1.10;;;;;;;;;;5086101;28;20500;-73
2022/11/16 11:32:21;;;;;;;6.43;1.15;;;;;;;;;;5084557;28;20028;-73
2022/11/16 11:34:51;;;;;;;4.38;1.20;;;;;;;;;;5084999;28;20756;-73
2022/11/16 11:37:30;;;;;;;6.68;1.48;;;;;;;;;;5080690;28;20032;-73
2022/11/16 11:40:19;;;;;;;6.75;1.45;;;;;;;;;;5085247;28;20070;-73
2022/11/16 11:43:02;;;;;;;4.13;0.90;;;;;;;;;;5081379;28;20040;-73
2022/11/16 11:45:53;;;;;;;2.25;0.80;;;;;;;;;;5066544;28;20021;-73
2022/11/16 11:48:35;;;;;;;4.55;1.25;;;;;;;;;;5066355;28;20486;-73
2022/11/16 11:51:18;;;;;;;7.32;1.15;;;;;;;;;;5076331;28;20048;-73
2022/11/16 11:53:57;;;;;;;0.85;0.40;;;;;;;;;;5064707;28;20043;-72
2022/11/16 11:56:23;;;;;;;4.55;0.93;;;;;;;;;;5066640;28;20083;-72
2022/11/16 11:58:50;;;;;;;3.08;0.90;;;;;;;;;;5065627;28;20051;-73
2022/11/16 12:01:36;;;;;;;2.80;0.90;;;;;;;;;;5075282;28;20522;-73
2022/11/16 12:04:25;;;;;;;2.70;0.80;;;;;;;;;;5065307;28;20041;-73
2022/11/16 12:07:03;;;;;;;4.63;1.10;;;;;;;;;;5080432;28;20107;-73
2022/11/16 12:10:02;;;;;;;3.85;0.68;;;;;;;;;;5084970;28;20028;-73
2022/11/16 12:12:49;;;;;;;3.78;1.10;;;;;;;;;;5084785;28;20068;-73
2022/11/16 12:16:10;;;;;;;3.58;1.33;;;;;;;;;;5083786;28;20032;-73
2022/11/16 12:18:56;;;;;;;1.00;0.77;;;;;;;;;;5021551;28;20056;-73
2022/11/16 12:21:44;;;;;;;1.48;0.85;;;;;;;;;;5020777;28;20403;-72
2022/11/16 12:24:23;;;;;;;1.92;0.93;;;;;;;;;;5059242;28;20091;-72
2022/11/16 12:26:56;;;;;;;0.60;0.60;;;;;;;;;;5064025;28;20624;-72
2022/11/16 12:29:50;;;;;;;2.90;1.10;;;;;;;;;;5064144;28;20036;-72
2022/11/16 12:32:34;;;;;;;;;;;;;;;;;;5080624;28;20032;-72
2022/11/16 12:35:27;;;;;;;2.50;0.90;;;;;;;;;;5064467;28;19961;-72
2022/11/16 12:38:23;;;;;;;2.70;1.40;;;;;;;;;;5066897;28;20054;-72
2022/11/16 12:41:15;;;;;;;6.22;1.30;;;;;;;;;;5069396;28;20091;-72
2022/11/16 12:44:05;;;;;;;1.48;1.00;;;;;;;;;;5069346;28;20543;-72
2022/11/16 12:46:45;;;;;;;4.15;1.55;;;;;;;;;;5073982;28;20396;-71
2022/11/16 12:49:47;;;;;;;5.72;1.63;;;;;;;;;;5084789;28;20035;-72
2022/11/16 12:52:24;;;;;;;6.63;1.42;;;;;;;;;;5069043;28;20111;-72
2022/11/16 12:55:04;;;;;;;1.67;1.13;;;;;;;;;;5093100;28;20059;-73
2022/11/16 12:57:29;;;;;;;3.95;1.48;;;;;;;;;;5089393;28;20392;-72
2022/11/16 13:00:09;;;;;;;4.03;1.48;;;;;;;;;;5088250;28;20020;-72
2022/11/16 13:03:06;;;;;;;5.68;1.45;;;;;;;;;;5087555;28;20032;-72
2022/11/16 13:05:41;;;;;;;4.35;1.10;;;;;;;;;;5086252;28;20154;-72
2022/11/16 13:08:22;;;;;;;3.60;1.27;;;;;;;;;;5089112;28;20773;-73
2022/11/16 13:10:51;;;;;;;5.30;1.55;;;;;;;;;;5088789;28;20621;-72
2022/11/16 13:13:37;;;;;;;3.08;1.00;;;;;;;;;;5088770;28;20044;-72
2022/11/16 13:16:05;;;;;;;3.35;1.20;;;;;;;;;;5087984;28;20039;-72
2022/11/16 13:18:34;;;;;;;4.18;1.00;;;;;;;;;;5088580;28;20028;-72
2022/11/16 13:21:25;;;;;;;4.95;1.38;;;;;;;;;;5087088;28;20019;-72
2022/11/16 13:24:36;;;;;;;2.28;1.00;;;;;;;;;;5086847;28;20044;-72
2022/11/16 13:27:44;;;;;;;3.75;1.05;;;;;;;;;;5079071;28;20046;-72
2022/11/16 13:30:21;;;;;;;2.75;1.17;;;;;;;;;;5085672;28;20260;-72
2022/11/16 13:33:12;;;;;;;2.85;1.08;;;;;;;;;;5085512;28;20028;-72
2022/11/16 13:35:38;;;;;;;4.53;1.20;;;;;;;;;;5086976;28;20117;-72
2022/11/16 13:38:07;;;;;;;5.53;1.15;;;;;;;;;;5088550;28;20447;-72
2022/11/16 13:40:32;;;;;;;7.35;1.48;;;;;;;;;;5087531;28;20119;-72
2022/11/16 13:43:10;;;;;;;5.78;1.10;;;;;;;;;;5074851;28;20120;-71
2022/11/16 13:45:44;;;;;;;2.63;0.98;;;;;;;;;;5088825;28;20084;-71
2022/11/16 13:48:35;;;;;;;5.40;1.30;;;;;;;;;;5088711;28;20027;-71
2022/11/16 13:51:04;;;;;;;5.40;1.23;;;;;;;;;;5091594;28;20042;-72
2022/11/16 13:53:35;;;;;;;4.32;1.10;;;;;;;;;;5107786;28;20508;-72
2022/11/16 13:56:04;;;;;;;3.33;1.20;;;;;;;;;;5108166;28;20031;-72
2022/11/16 13:58:32;;;;;;;3.88;1.33;;;;;;;;;;5090307;28;20117;-72
2022/11/16 14:01:00;;;;;;;4.82;1.45;;;;;;;;;;5108298;28;20023;-71
2022/11/16 14:03:37;;;;;;;3.85;1.30;;;;;;;;;;5089721;28;20659;-72
2022/11/16 14:06:23;;;;;;;2.83;0.98;;;;;;;;;;5108412;28;20034;-71
2022/11/16 14:08:53;;;;;;;3.25;1.20;;;;;;;;;;5056154;28;20414;-71
2022/11/16 14:11:33;;;;;;;3.22;0.88;;;;;;;;;;5089416;28;20416;-72
2022/11/16 14:14:04;;;;;;;2.80;0.82;;;;;;;;;;5104992;28;20043;-72
2022/11/16 14:16:40;;;;;;;3.95;0.85;;;;;;;;;;5107895;28;20031;-72
2022/11/16 14:19:46;;;;;;;3.75;1.23;;;;;;;;;;5108208;28;20063;-72
2022/11/16 14:22:29;;;;;;;6.78;0.77;;;;;;;;;;5100019;28;20523;-72
2022/11/16 14:25:13;;;;;;;3.10;0.93;;;;;;;;;;5107177;28;20115;-71
2022/11/16 14:27:43;;;;;;;;;;;;;;;;;;5107609;28;20076;-71
2022/11/16 14:30:24;;;;;;;4.70;0.93;;;;;;;;;;5107099;28;20411;-71
2022/11/16 14:32:52;;;;;;;2.33;1.00;;;;;;;;;;5088507;28;20043;-72
2022/11/16 14:35:38;;;;;;;3.42;0.98;;;;;;;;;;5106263;28;20468;-71
2022/11/16 14:38:14;;;;;;;3.17;1.02;;;;;;;;;;5107431;28;20532;-72
2022/11/16 14:40:46;;;;;;;3.63;0.90;;;;;;;;;;5088906;28;20408;-71
2022/11/16 14:43:26;;;;;;;2.03;0.75;;;;;;;;;;5089593;28;20059;-72
2022/11/16 14:46:03;;;;;;;2.95;1.23;;;;;;;;;;5107552;28;20110;-71
2022/11/16 14:48:28;;;;;;;1.55;0.75;;;;;;;;;;5088160;28;20151;-71
2022/11/16 14:51:12;;;;;;;12.90;1.70;;;;;;;;;;5107727;28;20053;-71
2022/11/16 14:53:44;;;;;;;2.97;1.20;;;;;;;;;;5106742;28;20031;-71
2022/11/16 14:56:12;;;;;;;0.85;0.77;;;;;;;;;;5107003;28;20032;-71
2022/11/16 14:58:38;;;;;;;3.65;1.23;;;;;;;;;;5088435;28;20038;-71
2022/11/16 15:01:07;;;;;;;3.78;1.33;;;;;;;;;;5107260;28;20040;-71
2022/11/16 15:03:37;;;;;;;4.95;1.10;;;;;;;;;;5087866;28;20509;-72
2022/11/16 15:06:03;;;;;;;3.65;1.42;;;;;;;;;;5085126;28;20103;-72
2022/11/16 15:08:37;;;;;;;2.20;1.10;;;;;;;;;;5085372;28;20028;-71
2022/11/16 15:11:06;;;;;;;4.25;1.27;;;;;;;;;;5084643;28;20516;-72
2022/11/16 15:13:32;;;;;;;2.10;1.15;;;;;;;;;;5084168;28;20451;-71
2022/11/16 15:16:26;;;;;;;4.03;1.30;;;;;;;;;;5085442;28;20504;-72
2022/11/16 15:19:01;;;;;;;7.22;2.28;;;;;;;;;;5085609;28;20031;-71
2022/11/16 15:21:26;;;;;;;10.30;2.35;;;;;;;;;;5103125;28;20539;-71
2022/11/16 15:23:52;;;;;;;9.68;2.75;;;;;;;;;;5105641;28;20076;-71
2022/11/16 15:26:20;;;;;;;8.68;2.28;;;;;;;;;;5104895;28;20048;-71
2022/11/16 15:28:46;;;;;;;9.13;3.35;;;;;;;;;;5106686;28;20040;-71
2022/11/16 15:31:13;;;;;;;7.88;3.45;;;;;;;;;;5104852;28;20042;-71
2022/11/16 15:33:42;;;;;;;11.25;3.35;;;;;;;;;;5104926;28;20015;-71
2022/11/16 15:36:39;;;;;;;16.27;4.47;;;;;;;;;;5106771;28;20024;-71
2022/11/16 15:39:08;;;;;;;13.80;4.88;;;;;;;;;;5087574;28;20048;-71
2022/11/16 15:41:36;;;;;;;16.00;4.65;;;;;;;;;;5087370;28;20058;-71
2022/11/16 15:44:04;;;;;;;14.10;4.65;;;;;;;;;;5103942;28;20065;-71
2022/11/16 15:46:32;;;;;;;15.55;4.55;;;;;;;;;;5102063;28;20030;-71
2022/11/16 15:48:59;;;;;;;15.02;4.82;;;;;;;;;;5100795;28;20948;-71